Time;durP1;ratioP1;P1;durP2;ratioP2;P2;SDS_P1;SDS_P2;PMS_P1;PMS_P2;Temp;Humidity;BMP_temperature;BMP_pressure;BME280_temperature;BME280_humidity;BME280_pressure;Samples;Min_cycle;Max_cycle;Signal;HPM_P1;HPM_P2
2021/01/31 00:00:26;;;;;;;1.77;1.50;;;21.50;51.90;;;;;;5057897;28;20456;-68
2021/01/31 00:02:52;;;;;;;2.20;1.60;;;21.50;51.90;;;;;;5076091;28;20613;-68
2021/01/31 00:05:19;;;;;;;1.60;1.50;;;21.40;51.80;;;;;;5075730;28;20435;-68
2021/01/31 00:07:44;;;;;;;2.20;1.50;;;21.50;51.90;;;;;;5075635;28;20183;-68
2021/01/31 00:10:13;;;;;;;1.60;1.30;;;21.40;51.80;;;;;;5075699;28;20428;-68
2021/01/31 00:12:38;;;;;;;1.40;1.20;;;21.50;51.90;;;;;;5075654;28;20178;-68
2021/01/31 00:15:09;;;;;;;2.13;1.50;;;21.40;51.80;;;;;;5057570;28;20423;-68
2021/01/31 00:17:34;;;;;;;1.57;1.20;;;21.50;51.90;;;;;;5057428;28;20202;-69
2021/01/31 00:20:00;;;;;;;2.40;1.60;;;21.40;51.80;;;;;;5075423;28;20506;-68
2021/01/31 00:22:26;;;;;;;1.77;1.27;;;21.40;51.80;;;;;;5075494;28;20264;-68
2021/01/31 00:24:54;;;;;;;1.50;1.40;;;21.40;51.80;;;;;;5075389;28;20170;-68
2021/01/31 00:27:24;;;;;;;2.20;1.80;;;21.40;51.80;;;;;;5075251;28;20680;-68
2021/01/31 00:29:51;;;;;;;1.80;1.50;;;21.40;51.80;;;;;;5075361;28;20817;-69
2021/01/31 00:32:27;;;;;;;2.37;1.40;;;21.40;52.00;;;;;;5075260;28;20487;-68
2021/01/31 00:34:54;;;;;;;3.17;1.67;;;21.40;51.80;;;;;;5075529;28;20424;-68
2021/01/31 00:37:21;;;;;;;4.13;1.80;;;21.40;51.80;;;;;;5075108;28;20436;-68
2021/01/31 00:39:48;;;;;;;1.70;1.37;;;21.40;51.80;;;;;;5075116;28;20452;-68
2021/01/31 00:42:16;;;;;;;2.40;1.50;;;21.40;51.80;;;;;;5075400;28;20405;-69
2021/01/31 00:44:47;;;;;;;1.90;1.50;;;21.40;51.80;;;;;;5075353;28;20416;-68
2021/01/31 00:47:14;;;;;;;2.20;1.50;;;21.40;51.80;;;;;;5075027;28;20432;-68
2021/01/31 00:49:40;;;;;;;2.30;1.30;;;21.40;51.80;;;;;;5075347;28;20516;-69
2021/01/31 00:52:05;;;;;;;2.57;1.73;;;21.40;51.80;;;;;;5057018;28;20989;-68
2021/01/31 00:54:31;;;;;;;1.73;1.50;;;21.40;51.80;;;;;;5074952;28;20404;-68
2021/01/31 00:56:57;;;;;;;1.73;1.53;;;21.40;51.80;;;;;;5066707;28;20628;-69
2021/01/31 00:59:22;;;;;;;1.73;1.60;;;21.40;51.80;;;;;;5074777;28;20186;-68
2021/01/31 01:01:48;;;;;;;3.67;2.60;;;21.40;51.80;;;;;;5056855;28;20174;-69
2021/01/31 01:04:14;;;;;;;2.33;1.93;;;21.40;51.80;;;;;;5075743;28;20194;-69
2021/01/31 01:06:39;;;;;;;2.03;1.40;;;21.40;51.80;;;;;;5074688;28;20266;-68
2021/01/31 01:09:05;;;;;;;1.70;1.43;;;21.40;51.80;;;;;;5074558;28;20170;-68
2021/01/31 01:11:30;;;;;;;1.67;1.30;;;21.40;51.80;;;;;;5074530;28;20174;-69
2021/01/31 01:13:56;;;;;;;1.77;1.20;;;21.40;51.80;;;;;;5056649;28;20174;-69
2021/01/31 01:16:22;;;;;;;2.23;1.50;;;21.40;51.80;;;;;;5074460;28;20565;-69
2021/01/31 01:18:48;;;;;;;1.73;1.40;;;21.40;51.80;;;;;;5074332;28;20455;-68
2021/01/31 01:21:15;;;;;;;1.60;1.33;;;21.40;51.80;;;;;;5074334;28;20708;-69
2021/01/31 01:23:41;;;;;;;2.10;1.37;;;21.40;51.80;;;;;;5074260;28;20257;-68
2021/01/31 01:26:07;;;;;;;1.57;1.47;;;21.40;51.90;;;;;;5074098;28;20409;-68
2021/01/31 01:28:33;;;;;;;2.00;1.40;;;21.40;51.80;;;;;;5073976;28;20408;-68
2021/01/31 01:30:58;;;;;;;2.93;1.40;;;21.40;51.80;;;;;;5074120;28;20170;-68
2021/01/31 01:33:24;;;;;;;1.70;1.37;;;21.30;51.80;;;;;;5074120;28;20409;-68
2021/01/31 01:35:50;;;;;;;2.03;1.40;;;21.40;51.90;;;;;;5074167;28;20564;-69
2021/01/31 01:38:15;;;;;;;1.50;1.20;;;21.30;52.40;;;;;;5073911;28;20194;-69
2021/01/31 01:40:41;;;;;;;1.70;1.60;;;21.30;51.80;;;;;;5056117;28;20265;-69
2021/01/31 01:43:17;;;;;;;1.80;1.50;;;21.30;51.80;;;;;;5073957;28;20197;-69
2021/01/31 01:45:45;;;;;;;1.80;1.30;;;21.30;51.80;;;;;;5073903;28;20431;-68
2021/01/31 01:48:17;;;;;;;1.50;1.33;;;21.30;51.80;;;;;;5073717;28;20432;-68
2021/01/31 01:50:51;;;;;;;2.23;1.40;;;21.30;52.40;;;;;;5073808;28;20846;-68
2021/01/31 01:53:20;;;;;;;1.80;1.17;;;21.30;51.80;;;;;;5073706;28;20450;-69
2021/01/31 01:55:57;;;;;;;2.00;1.40;;;21.30;51.90;;;;;;5039442;28;20499;-68
2021/01/31 01:58:23;;;;;;;1.77;1.37;;;21.30;51.90;;;;;;5073368;28;20958;-69
2021/01/31 02:00:49;;;;;;;1.63;1.30;;;21.30;51.90;;;;;;5073840;28;20412;-68
2021/01/31 02:03:32;;;;;;;1.93;1.50;;;21.30;51.90;;;;;;5073755;28;20431;-69
2021/01/31 02:06:13;;;;;;;1.70;1.27;;;21.30;51.80;;;;;;5073488;28;20743;-68
2021/01/31 02:08:42;;;;;;;1.70;1.30;;;21.30;51.80;;;;;;5055650;28;20412;-69
2021/01/31 02:11:09;;;;;;;1.30;1.13;;;21.30;51.90;;;;;;5073422;28;20758;-67
2021/01/31 02:13:38;;;;;;;2.50;1.33;;;21.30;51.80;;;;;;5073346;28;20423;-69
2021/01/31 02:16:22;;;;;;;1.90;1.30;;;21.30;51.80;;;;;;5073332;28;20424;-68
2021/01/31 02:19:25;;;;;;;1.60;1.13;;;21.30;51.90;;;;;;5072230;28;20451;-69
2021/01/31 02:21:57;;;;;;;1.40;1.10;;;21.30;51.80;;;;;;5073301;28;20743;-68
2021/01/31 02:24:41;;;;;;;1.57;1.40;;;21.30;51.90;;;;;;5073286;28;20419;-68
2021/01/31 02:27:16;;;;;;;1.60;1.20;;;21.30;51.90;;;;;;5073102;28;20425;-69
2021/01/31 02:29:56;;;;;;;2.40;1.87;;;21.30;51.90;;;;;;5073050;28;20423;-69
2021/01/31 02:32:58;;;;;;;1.53;1.23;;;21.20;51.80;;;;;;5063552;28;20428;-68
2021/01/31 02:35:27;;;;;;;1.90;1.53;;;21.30;51.90;;;;;;5073438;28;20393;-68
2021/01/31 02:38:03;;;;;;;1.53;1.37;;;21.20;51.90;;;;;;5073795;28;20971;-68
2021/01/31 02:40:34;;;;;;;1.23;1.10;;;21.30;51.90;;;;;;5072517;28;20435;-68
2021/01/31 02:43:08;;;;;;;1.90;1.30;;;21.30;51.90;;;;;;5073216;28;20895;-69
2021/01/31 02:46:07;;;;;;;1.70;1.40;;;21.30;51.90;;;;;;5072996;28;20415;-68
2021/01/31 02:48:42;;;;;;;1.37;1.23;;;21.30;51.90;;;;;;5073051;28;20420;-68
2021/01/31 02:51:31;;;;;;;1.90;1.50;;;21.20;51.90;;;;;;5055187;28;20928;-68
2021/01/31 02:54:06;;;;;;;1.47;1.23;;;21.30;51.90;;;;;;5072954;28;20399;-69
2021/01/31 02:56:42;;;;;;;1.80;1.27;;;21.20;51.90;;;;;;5073284;28;20946;-69
2021/01/31 02:59:43;;;;;;;1.17;1.03;;;21.30;51.90;;;;;;5072989;28;20479;-69
2021/01/31 03:02:15;;;;;;;1.40;1.13;;;21.20;51.80;;;;;;5065221;28;20470;-68
2021/01/31 03:05:21;;;;;;;2.00;1.30;;;21.20;51.80;;;;;;5054809;28;20405;-68
2021/01/31 03:07:52;;;;;;;1.60;1.40;;;21.20;51.80;;;;;;5072984;28;20428;-68
2021/01/31 03:10:40;;;;;;;2.33;1.57;;;21.20;51.90;;;;;;5073078;28;20483;-68
2021/01/31 03:13:38;;;;;;;1.80;1.40;;;21.20;51.90;;;;;;5055361;28;20860;-68
2021/01/31 03:16:18;;;;;;;1.87;1.57;;;21.20;51.80;;;;;;5069438;28;20489;-68
2021/01/31 03:18:49;;;;;;;3.33;1.47;;;21.20;51.90;;;;;;5055169;28;21029;-68
2021/01/31 03:21:24;;;;;;;1.40;1.20;;;21.20;51.90;;;;;;5054675;28;20766;-68
2021/01/31 03:24:19;;;;;;;1.53;1.13;;;21.20;51.80;;;;;;5073215;28;20399;-68
2021/01/31 03:26:57;;;;;;;1.43;1.33;;;21.20;51.90;;;;;;5072753;28;20440;-68
2021/01/31 03:29:23;;;;;;;1.70;1.30;;;21.20;51.80;;;;;;5072615;28;20385;-68
2021/01/31 03:31:54;;;;;;;1.50;1.00;;;21.20;51.80;;;;;;5072543;28;20481;-68
2021/01/31 03:34:28;;;;;;;1.33;1.10;;;21.20;51.80;;;;;;5072537;28;20393;-68
2021/01/31 03:37:00;;;;;;;1.73;1.20;;;21.20;51.80;;;;;;5072575;28;20430;-68
2021/01/31 03:39:28;;;;;;;1.50;1.30;;;21.20;51.80;;;;;;5072754;28;20531;-68
2021/01/31 03:41:54;;;;;;;2.20;1.30;;;21.20;51.80;;;;;;5072432;28;20500;-69
2021/01/31 03:44:20;;;;;;;1.50;1.23;;;21.20;51.80;;;;;;5072441;28;20533;-69
2021/01/31 03:47:04;;;;;;;1.63;1.40;;;21.20;51.70;;;;;;5072250;28;20436;-68
2021/01/31 03:49:57;;;;;;;1.57;1.13;;;21.20;51.70;;;;;;5072430;28;20604;-68
2021/01/31 03:52:24;;;;;;;1.30;1.07;;;21.20;51.70;;;;;;5054759;28;20453;-68
2021/01/31 03:55:14;;;;;;;1.80;1.20;;;21.10;51.60;;;;;;5074741;28;20428;-68
2021/01/31 03:57:48;;;;;;;1.40;1.10;;;21.20;51.70;;;;;;5075732;28;20857;-69
2021/01/31 04:00:23;;;;;;;1.50;1.30;;;21.20;51.70;;;;;;5075796;28;20452;-68
2021/01/31 04:03:00;;;;;;;1.60;1.13;;;21.20;51.70;;;;;;5075900;28;20391;-68
2021/01/31 04:05:28;;;;;;;1.30;1.17;;;21.20;51.70;;;;;;5057900;28;20397;-68
2021/01/31 04:07:56;;;;;;;1.80;1.40;;;21.20;51.70;;;;;;5075653;28;20482;-68
2021/01/31 04:10:22;;;;;;;1.30;1.03;;;21.20;51.70;;;;;;5075956;28;20405;-69
2021/01/31 04:12:53;;;;;;;1.40;1.23;;;21.20;51.70;;;;;;5057770;28;20413;-68
2021/01/31 04:15:47;;;;;;;1.40;1.23;;;21.20;51.70;;;;;;5058853;28;20409;-68
2021/01/31 04:18:15;;;;;;;1.40;1.07;;;21.20;51.70;;;;;;5075428;28;20759;-68
2021/01/31 04:20:41;;;;;;;1.53;1.40;;;21.10;51.60;;;;;;5075531;28;20816;-68
2021/01/31 04:23:07;;;;;;;1.47;1.33;;;21.20;51.70;;;;;;5075744;28;20406;-68
2021/01/31 04:25:33;;;;;;;1.40;1.13;;;21.20;51.70;;;;;;5057552;28;20461;-69
2021/01/31 04:28:11;;;;;;;1.60;1.23;;;21.20;51.70;;;;;;5075299;28;20452;-68
2021/01/31 04:30:42;;;;;;;1.50;1.40;;;21.20;51.60;;;;;;5075725;28;20381;-68
2021/01/31 04:33:10;;;;;;;1.57;1.10;;;21.20;51.60;;;;;;5075620;28;20385;-68
2021/01/31 04:35:36;;;;;;;1.20;1.00;;;21.20;51.70;;;;;;5075301;28;20811;-68
2021/01/31 04:38:02;;;;;;;1.50;1.10;;;21.20;51.60;;;;;;5075161;28;20421;-68
2021/01/31 04:40:29;;;;;;;1.40;1.20;;;21.10;51.60;;;;;;5075060;28;20198;-68
2021/01/31 04:42:55;;;;;;;1.50;1.20;;;21.20;51.70;;;;;;5075091;28;20451;-69
2021/01/31 04:45:21;;;;;;;1.73;1.33;;;21.10;51.60;;;;;;5075029;28;20408;-68
2021/01/31 04:48:17;;;;;;;1.47;1.10;;;21.10;51.60;;;;;;5074971;28;20182;-69
2021/01/31 04:50:52;;;;;;;1.67;1.17;;;21.20;51.70;;;;;;5075047;28;20150;-69
2021/01/31 04:53:52;;;;;;;1.33;1.20;;;21.10;51.60;;;;;;5074907;28;20418;-68
2021/01/31 04:56:21;;;;;;;1.17;1.00;;;21.10;51.60;;;;;;5056897;28;20447;-68
2021/01/31 04:58:49;;;;;;;1.30;1.07;;;21.10;51.70;;;;;;5073378;28;20460;-68
2021/01/31 05:01:35;;;;;;;1.67;1.37;;;21.10;51.70;;;;;;5075063;28;20451;-68
2021/01/31 05:04:07;;;;;;;1.33;1.00;;;21.10;51.70;;;;;;5073917;28;20412;-69
2021/01/31 05:06:41;;;;;;;1.60;1.20;;;21.00;51.60;;;;;;5074766;28;20420;-68
2021/01/31 05:09:13;;;;;;;1.20;1.07;;;21.00;51.70;;;;;;5074898;28;20393;-68
2021/01/31 05:11:45;;;;;;;1.20;1.00;;;21.00;51.60;;;;;;5074867;28;20392;-68
2021/01/31 05:14:23;;;;;;;1.60;1.13;;;21.00;51.70;;;;;;5073206;28;20420;-69
2021/01/31 05:16:49;;;;;;;1.40;1.30;;;21.00;51.70;;;;;;5074431;28;20420;-68
2021/01/31 05:19:26;;;;;;;1.50;1.17;;;21.00;51.70;;;;;;5074543;28;20529;-68
2021/01/31 05:21:53;;;;;;;1.73;1.13;;;21.00;51.70;;;;;;5074324;28;20393;-69
2021/01/31 05:24:22;;;;;;;1.50;1.10;;;21.00;51.70;;;;;;5074287;28;20938;-68
2021/01/31 05:26:57;;;;;;;1.20;1.00;;;21.00;51.70;;;;;;5074177;28;20427;-69
2021/01/31 05:29:27;;;;;;;1.10;1.00;;;21.00;51.70;;;;;;5074409;28;20412;-68
2021/01/31 05:32:00;;;;;;;1.13;0.97;;;21.00;51.70;;;;;;5074152;28;20400;-69
2021/01/31 05:34:45;;;;;;;1.43;1.03;;;21.00;51.70;;;;;;5074351;28;20396;-68
2021/01/31 05:37:45;;;;;;;1.20;1.00;;;21.00;51.70;;;;;;5056633;28;20463;-68
2021/01/31 05:40:25;;;;;;;1.43;1.13;;;21.00;51.70;;;;;;5051352;28;20979;-69
2021/01/31 05:42:52;;;;;;;1.60;1.20;;;21.00;51.70;;;;;;5073922;28;20757;-69
2021/01/31 05:45:20;;;;;;;1.60;1.20;;;21.00;51.70;;;;;;5073882;28;20430;-67
2021/01/31 05:47:48;;;;;;;1.60;1.23;;;21.00;51.70;;;;;;5072471;28;20432;-68
2021/01/31 05:50:37;;;;;;;1.53;1.30;;;21.00;51.60;;;;;;5055917;28;20478;-69
2021/01/31 05:53:20;;;;;;;1.93;1.20;;;21.00;51.60;;;;;;5073793;28;20965;-68
2021/01/31 05:55:46;;;;;;;1.87;1.40;;;21.00;51.60;;;;;;5073687;28;20902;-68
2021/01/31 05:58:24;;;;;;;2.60;1.70;;;21.00;51.60;;;;;;5073505;28;20452;-68
2021/01/31 06:01:08;;;;;;;1.30;1.20;;;21.10;51.70;;;;;;5073559;28;20735;-69
2021/01/31 06:03:34;;;;;;;1.23;1.10;;;21.10;51.70;;;;;;5073535;28;20408;-69
2021/01/31 06:06:23;;;;;;;1.30;1.20;;;21.00;51.60;;;;;;5073576;28;20840;-68
2021/01/31 06:08:51;;;;;;;1.37;1.10;;;21.10;51.60;;;;;;5073532;28;20417;-69
2021/01/31 06:11:24;;;;;;;1.30;1.20;;;21.10;51.60;;;;;;5073431;28;20911;-69
2021/01/31 06:14:09;;;;;;;1.50;1.10;;;21.10;51.60;;;;;;5073559;28;20759;-68
2021/01/31 06:16:36;;;;;;;1.67;1.20;;;21.10;51.50;;;;;;5073290;28;20424;-69
2021/01/31 06:19:24;;;;;;;1.73;1.20;;;21.10;51.50;;;;;;5073247;28;20476;-69
2021/01/31 06:21:50;;;;;;;1.30;1.10;;;21.10;51.40;;;;;;5073576;28;20397;-68
2021/01/31 06:24:34;;;;;;;1.40;1.30;;;21.10;51.50;;;;;;5073315;28;20776;-69
2021/01/31 06:27:02;;;;;;;1.40;1.20;;;21.20;51.50;;;;;;5073613;28;20222;-68
2021/01/31 06:29:46;;;;;;;1.50;1.17;;;21.10;51.40;;;;;;5073154;28;20946;-68
2021/01/31 06:32:26;;;;;;;1.80;1.10;;;21.10;51.40;;;;;;5073211;28;20940;-68
2021/01/31 06:34:55;;;;;;;1.33;1.20;;;21.20;51.50;;;;;;5073163;28;20396;-68
2021/01/31 06:37:37;;;;;;;1.37;1.27;;;21.20;51.50;;;;;;5072996;28;20435;-68
2021/01/31 06:40:16;;;;;;;1.97;1.43;;;21.20;51.50;;;;;;5073007;28;20527;-68
2021/01/31 06:43:10;;;;;;;1.27;1.10;;;21.20;51.40;;;;;;5073309;28;20423;-69
2021/01/31 06:45:56;;;;;;;1.53;1.20;;;21.20;51.40;;;;;;5073029;28;20404;-69
2021/01/31 06:48:46;;;;;;;1.50;1.13;;;21.20;51.40;;;;;;5072926;28;20419;-68
2021/01/31 06:51:30;;;;;;;1.30;1.13;;;21.20;51.40;;;;;;5072975;28;20472;-68
2021/01/31 06:54:16;;;;;;;1.63;1.03;;;21.20;51.40;;;;;;5073255;28;20377;-68
2021/01/31 06:57:20;;;;;;;1.70;1.40;;;21.30;51.40;;;;;;5072734;28;20460;-68
2021/01/31 07:00:10;;;;;;;1.53;1.03;;;21.20;51.40;;;;;;5071536;28;20463;-68
2021/01/31 07:02:51;;;;;;;1.63;1.13;;;21.20;51.40;;;;;;5072932;28;20389;-68
2021/01/31 07:05:43;;;;;;;1.80;1.03;;;21.20;51.90;;;;;;5072805;28;20935;-67
2021/01/31 07:08:32;;;;;;;1.23;1.10;;;21.30;51.50;;;;;;5072834;28;20951;-69
2021/01/31 07:11:30;;;;;;;1.70;1.30;;;21.20;51.40;;;;;;5054848;28;20462;-68
2021/01/31 07:14:18;;;;;;;1.30;1.00;;;21.30;51.50;;;;;;5053089;28;20413;-68
2021/01/31 07:16:47;;;;;;;1.43;1.20;;;21.20;51.40;;;;;;5055178;28;20424;-68
2021/01/31 07:19:39;;;;;;;1.10;1.00;;;21.20;51.40;;;;;;5073008;28;20456;-69
2021/01/31 07:22:17;;;;;;;1.43;1.10;;;21.30;51.40;;;;;;5072995;28;20460;-68
2021/01/31 07:24:58;;;;;;;1.30;1.10;;;21.20;51.30;;;;;;5072665;28;20389;-68
2021/01/31 07:27:28;;;;;;;1.80;1.30;;;21.30;51.40;;;;;;5074990;28;20423;-69
2021/01/31 07:30:03;;;;;;;1.57;1.20;;;21.20;51.40;;;;;;5076670;28;20421;-69
2021/01/31 07:32:58;;;;;;;1.60;1.50;;;21.30;51.40;;;;;;5076728;28;20404;-68
2021/01/31 07:35:29;;;;;;;1.23;1.07;;;21.30;51.40;;;;;;5070448;28;20420;-68
2021/01/31 07:38:06;;;;;;;1.80;1.10;;;21.20;51.30;;;;;;5076325;28;20431;-68
2021/01/31 07:40:33;;;;;;;1.50;1.30;;;21.30;51.40;;;;;;5076525;28;20964;-69
2021/01/31 07:43:00;;;;;;;1.30;1.10;;;21.30;51.30;;;;;;5076267;28;20434;-68
2021/01/31 07:45:27;;;;;;;1.40;1.13;;;21.30;51.40;;;;;;5076184;28;20405;-68
2021/01/31 07:48:28;;;;;;;1.60;1.30;;;21.30;51.40;;;;;;5076107;28;20481;-69
2021/01/31 07:50:54;;;;;;;1.53;1.23;;;21.30;51.30;;;;;;5076158;28;20840;-68
2021/01/31 07:53:32;;;;;;;1.77;1.20;;;21.30;51.30;;;;;;5076031;28;20537;-68
2021/01/31 07:56:34;;;;;;;1.07;0.90;;;21.30;51.30;;;;;;5076033;28;20223;-69
2021/01/31 07:59:23;;;;;;;1.50;1.07;;;21.30;51.30;;;;;;5076091;28;20459;-68
2021/01/31 08:01:56;;;;;;;1.33;1.13;;;21.30;51.30;;;;;;5057938;28;20396;-68
2021/01/31 08:04:25;;;;;;;1.10;0.90;;;21.30;51.30;;;;;;5075929;28;20385;-68
2021/01/31 08:06:57;;;;;;;1.10;0.93;;;21.30;51.30;;;;;;5075751;28;20420;-69
2021/01/31 08:09:26;;;;;;;1.73;1.17;;;21.30;51.30;;;;;;5075745;28;20412;-68
2021/01/31 08:12:14;;;;;;;1.27;1.00;;;21.30;51.30;;;;;;5075985;28;20412;-69
2021/01/31 08:15:08;;;;;;;2.27;1.37;;;21.30;51.20;;;;;;5075687;28;20401;-68
2021/01/31 08:17:44;;;;;;;1.30;1.00;;;21.40;51.30;;;;;;5057605;28;20432;-68
2021/01/31 08:20:40;;;;;;;1.33;1.00;;;21.30;51.20;;;;;;5075581;28;20447;-68
2021/01/31 08:23:12;;;;;;;1.60;1.00;;;21.30;51.30;;;;;;5075845;28;20392;-68
2021/01/31 08:25:58;;;;;;;1.40;1.10;;;21.30;51.30;;;;;;5075457;28;20385;-68
2021/01/31 08:28:30;;;;;;;0.90;0.80;;;21.30;51.30;;;;;;5075313;28;20424;-68
2021/01/31 08:31:05;;;;;;;1.13;1.03;;;21.30;51.30;;;;;;5075429;28;20491;-69
2021/01/31 08:33:35;;;;;;;1.40;1.10;;;21.30;51.90;;;;;;5074030;28;20853;-68
2021/01/31 08:36:06;;;;;;;1.20;0.90;;;21.30;51.30;;;;;;5075610;28;20460;-68
2021/01/31 08:38:45;;;;;;;1.80;1.27;;;21.30;51.30;;;;;;5073746;28;20445;-68
2021/01/31 08:41:29;;;;;;;1.43;1.23;;;21.30;51.90;;;;;;5075279;28;20392;-68
2021/01/31 08:44:00;;;;;;;1.10;0.90;;;21.40;51.40;;;;;;5073856;28;20461;-68
2021/01/31 08:46:31;;;;;;;1.70;1.30;;;21.30;51.30;;;;;;5075032;28;20401;-68
2021/01/31 08:49:03;;;;;;;1.50;1.10;;;21.30;51.30;;;;;;5075080;28;20778;-69
2021/01/31 08:51:37;;;;;;;1.20;0.90;;;21.30;51.30;;;;;;5057722;28;20412;-69
2021/01/31 08:54:08;;;;;;;1.33;1.07;;;21.30;51.30;;;;;;5056931;28;20400;-68
2021/01/31 08:56:46;;;;;;;1.40;0.93;;;21.40;51.40;;;;;;5074916;28;20802;-67
2021/01/31 08:59:15;;;;;;;1.30;1.10;;;21.30;51.30;;;;;;5074796;28;20447;-69
2021/01/31 09:01:50;;;;;;;1.30;1.10;;;21.30;51.30;;;;;;5074617;28;20466;-68
2021/01/31 09:04:18;;;;;;;1.83;1.17;;;21.40;51.40;;;;;;5074716;28;20385;-68
2021/01/31 09:06:47;;;;;;;1.10;1.00;;;21.30;51.30;;;;;;5074636;28;20425;-68
2021/01/31 09:09:22;;;;;;;1.47;1.10;;;21.30;51.30;;;;;;5074642;28;20409;-68
2021/01/31 09:11:56;;;;;;;1.53;1.10;;;21.40;51.30;;;;;;5074859;28;20479;-68
2021/01/31 09:14:30;;;;;;;1.30;1.10;;;21.40;51.30;;;;;;5057173;28;20416;-68
2021/01/31 09:17:07;;;;;;;1.40;1.13;;;21.30;51.80;;;;;;5074723;28;20432;-68
2021/01/31 09:19:33;;;;;;;1.23;1.07;;;21.40;51.40;;;;;;5074622;28;20432;-68
2021/01/31 09:22:10;;;;;;;1.27;1.10;;;21.30;51.30;;;;;;5074350;28;20409;-68
2021/01/31 09:24:39;;;;;;;1.50;1.17;;;21.40;51.40;;;;;;5074356;28;20143;-68
2021/01/31 09:27:07;;;;;;;1.40;1.10;;;21.40;51.30;;;;;;5074093;28;20459;-69
2021/01/31 09:29:34;;;;;;;1.27;1.10;;;21.40;51.30;;;;;;5074228;28;20745;-69
2021/01/31 09:32:13;;;;;;;1.40;1.23;;;21.30;51.20;;;;;;5074447;28;20439;-68
2021/01/31 09:34:40;;;;;;;1.57;1.23;;;21.40;51.30;;;;;;5074386;28;20428;-68
2021/01/31 09:37:09;;;;;;;1.37;1.00;;;21.40;51.30;;;;;;5074119;28;20469;-68
2021/01/31 09:39:37;;;;;;;1.10;1.00;;;21.40;51.30;;;;;;5073943;28;20452;-68
2021/01/31 09:42:04;;;;;;;1.10;0.90;;;21.40;51.30;;;;;;5072785;28;20474;-67
2021/01/31 09:44:31;;;;;;;1.30;1.20;;;21.40;51.30;;;;;;5073965;28;20417;-69
2021/01/31 09:46:58;;;;;;;1.00;0.90;;;21.40;51.30;;;;;;5073805;28;20446;-68
2021/01/31 09:49:27;;;;;;;1.23;0.90;;;21.40;51.30;;;;;;5055507;28;20416;-69
2021/01/31 09:51:53;;;;;;;1.50;1.40;;;21.40;51.30;;;;;;5073773;28;20493;-69
2021/01/31 09:54:30;;;;;;;1.30;1.10;;;21.40;51.30;;;;;;5055840;28;20927;-68
2021/01/31 09:56:58;;;;;;;1.80;1.47;;;21.40;51.30;;;;;;5073552;28;20554;-68
2021/01/31 09:59:29;;;;;;;1.73;1.43;;;21.40;51.30;;;;;;5073500;28;20452;-68
2021/01/31 10:02:01;;;;;;;1.97;1.30;;;21.40;51.30;;;;;;5073595;28;20432;-68
2021/01/31 10:04:27;;;;;;;1.20;1.10;;;21.30;51.20;;;;;;5073806;28;20863;-68
2021/01/31 10:07:03;;;;;;;1.93;1.20;;;21.30;51.20;;;;;;5073637;28;20421;-69
2021/01/31 10:09:33;;;;;;;1.47;1.20;;;21.30;51.20;;;;;;5073445;28;20395;-68
2021/01/31 10:12:31;;;;;;;2.10;1.60;;;21.30;51.30;;;;;;5073407;28;20533;-68
2021/01/31 10:15:05;;;;;;;1.70;1.60;;;21.40;51.30;;;;;;5050814;28;20923;-68
2021/01/31 10:17:37;;;;;;;1.87;1.57;;;21.30;51.30;;;;;;5055281;28;20458;-68
2021/01/31 10:20:34;;;;;;;1.63;1.53;;;21.30;51.30;;;;;;5073238;28;20811;-69
2021/01/31 10:23:11;;;;;;;1.53;1.20;;;21.30;51.30;;;;;;5073196;28;20404;-69
2021/01/31 10:25:41;;;;;;;1.30;1.20;;;21.30;51.30;;;;;;5073496;28;20385;-68
2021/01/31 10:28:11;;;;;;;2.23;1.77;;;21.30;51.40;;;;;;5073085;28;20558;-69
2021/01/31 10:30:45;;;;;;;1.83;1.63;;;21.30;51.30;;;;;;5073185;28;20398;-68
2021/01/31 10:33:44;;;;;;;2.23;1.60;;;21.30;51.30;;;;;;5073125;28;20376;-68
2021/01/31 10:36:22;;;;;;;2.43;1.67;;;21.40;51.40;;;;;;5073067;28;20415;-68
2021/01/31 10:38:48;;;;;;;2.13;1.63;;;21.30;51.30;;;;;;5072939;28;20540;-68
2021/01/31 10:41:13;;;;;;;2.50;1.70;;;21.30;51.40;;;;;;5054989;28;20492;-68
2021/01/31 10:43:39;;;;;;;2.20;1.23;;;21.30;51.40;;;;;;5073049;28;20175;-68
2021/01/31 10:46:05;;;;;;;1.93;1.50;;;21.30;51.40;;;;;;5073022;28;20652;-68
2021/01/31 10:48:30;;;;;;;1.77;1.67;;;21.30;51.40;;;;;;5073150;28;20546;-68
2021/01/31 10:50:56;;;;;;;2.03;1.47;;;21.30;51.40;;;;;;5072891;28;20197;-68
2021/01/31 10:53:22;;;;;;;3.00;1.60;;;21.30;51.30;;;;;;5072799;28;20193;-68
2021/01/31 10:55:48;;;;;;;3.43;2.47;;;21.40;51.40;;;;;;5073128;28;20162;-68
2021/01/31 10:58:13;;;;;;;3.67;1.97;;;21.40;51.40;;;;;;5054636;28;20301;-68
2021/01/31 11:00:39;;;;;;;2.40;1.73;;;21.40;51.40;;;;;;5073423;28;20313;-68
2021/01/31 11:03:05;;;;;;;2.43;1.53;;;21.40;51.40;;;;;;5076580;28;20166;-69
2021/01/31 11:05:31;;;;;;;2.30;1.63;;;21.40;51.30;;;;;;5076858;28;20739;-69
2021/01/31 11:07:57;;;;;;;2.37;1.70;;;21.40;51.30;;;;;;5076773;28;20186;-68
2021/01/31 11:10:22;;;;;;;2.27;1.90;;;21.40;51.30;;;;;;5076822;28;20531;-68
2021/01/31 11:12:48;;;;;;;2.47;2.00;;;21.40;51.30;;;;;;5076817;28;20170;-68
2021/01/31 11:15:15;;;;;;;2.53;1.60;;;21.40;51.40;;;;;;5058742;28;20778;-68
2021/01/31 11:17:41;;;;;;;2.60;1.90;;;21.40;51.40;;;;;;5076571;28;20197;-69
2021/01/31 11:20:08;;;;;;;4.77;2.03;;;21.40;51.40;;;;;;5076568;28;20456;-68
2021/01/31 11:22:34;;;;;;;2.63;1.87;;;21.40;51.30;;;;;;5076625;28;20174;-68
2021/01/31 11:25:00;;;;;;;3.70;2.13;;;21.40;51.40;;;;;;5075341;28;20404;-69
2021/01/31 11:27:25;;;;;;;3.37;2.13;;;21.40;51.40;;;;;;5076486;28;20416;-68
2021/01/31 11:29:51;;;;;;;3.60;2.17;;;21.40;51.40;;;;;;5076600;28;20182;-68
2021/01/31 11:32:17;;;;;;;3.97;2.50;;;21.40;51.40;;;;;;5076720;28;20655;-68
2021/01/31 11:34:44;;;;;;;9.37;2.30;;;21.40;51.40;;;;;;5076714;28;20177;-68
2021/01/31 11:37:10;;;;;;;6.10;2.00;;;21.40;51.40;;;;;;5076538;28;20190;-68
2021/01/31 11:39:35;;;;;;;3.80;2.13;;;21.40;51.40;;;;;;5076237;28;20477;-66
2021/01/31 11:42:01;;;;;;;3.40;2.07;;;21.40;51.40;;;;;;5076505;28;20458;-67
2021/01/31 11:44:26;;;;;;;3.70;2.27;;;21.40;51.50;;;;;;5076192;28;20174;-67
2021/01/31 11:46:52;;;;;;;3.63;2.27;;;21.40;51.50;;;;;;5076280;28;20190;-68
2021/01/31 11:49:18;;;;;;;7.67;2.83;;;21.40;51.50;;;;;;5076068;28;20269;-68
2021/01/31 11:51:43;;;;;;;4.40;2.77;;;21.40;51.60;;;;;;5074915;28;20265;-68
2021/01/31 11:54:10;;;;;;;3.40;2.23;;;21.40;51.60;;;;;;5076015;28;20182;-67
2021/01/31 11:56:36;;;;;;;4.13;2.90;;;21.40;51.60;;;;;;5075843;28;20637;-68
2021/01/31 11:59:02;;;;;;;4.03;2.30;;;21.40;51.60;;;;;;5075873;28;20534;-67
2021/01/31 12:01:30;;;;;;;3.60;2.03;;;21.40;51.60;;;;;;5076159;28;20762;-69
2021/01/31 12:03:56;;;;;;;2.00;1.80;;;21.40;51.50;;;;;;5076187;28;20783;-68
2021/01/31 12:06:21;;;;;;;4.60;2.33;;;21.40;51.50;;;;;;5075777;28;20419;-68
2021/01/31 12:08:47;;;;;;;5.03;2.50;;;21.40;51.50;;;;;;5075775;28;20189;-68
2021/01/31 12:11:13;;;;;;;6.07;3.00;;;21.40;51.50;;;;;;5058311;28;20178;-69
2021/01/31 12:13:39;;;;;;;5.60;2.30;;;21.40;51.50;;;;;;5075368;28;20557;-68
2021/01/31 12:16:05;;;;;;;5.40;2.40;;;21.40;51.50;;;;;;5075575;28;20187;-67
2021/01/31 12:18:31;;;;;;;3.07;2.27;;;21.40;51.50;;;;;;5075354;28;20435;-68
2021/01/31 12:20:56;;;;;;;4.53;2.33;;;21.40;51.50;;;;;;5075492;28;20491;-68
2021/01/31 12:23:22;;;;;;;5.57;2.50;;;21.40;51.50;;;;;;5075451;28;20616;-67
2021/01/31 12:25:48;;;;;;;6.00;3.27;;;21.40;51.40;;;;;;5075465;28;20170;-68
2021/01/31 12:28:17;;;;;;;6.20;4.03;;;21.40;51.30;;;;;;5057308;28;20299;-68
2021/01/31 12:30:42;;;;;;;7.80;5.23;;;21.40;50.80;;;;;;5075265;28;20183;-69
2021/01/31 12:33:09;;;;;;;5.63;5.00;;;21.40;50.10;;;;;;5075864;28;20419;-67
2021/01/31 12:35:35;;;;;;;5.97;5.37;;;21.30;49.00;;;;;;5075818;28;20185;-68
2021/01/31 12:38:01;;;;;;;6.80;5.67;;;21.30;48.70;;;;;;5075140;28;20464;-68
2021/01/31 12:40:28;;;;;;;6.83;5.60;;;21.20;48.20;;;;;;5075347;28;20208;-68
2021/01/31 12:42:54;;;;;;;5.70;5.03;;;21.20;47.40;;;;;;5075046;28;20189;-69
2021/01/31 12:45:21;;;;;;;5.97;5.37;;;21.10;47.40;;;;;;5075305;28;20405;-68
2021/01/31 12:47:46;;;;;;;4.77;4.27;;;21.20;47.40;;;;;;5074808;28;20255;-68
2021/01/31 12:50:14;;;;;;;5.70;4.10;;;21.20;48.00;;;;;;5074916;28;20412;-68
2021/01/31 12:52:40;;;;;;;9.23;5.10;;;21.10;48.10;;;;;;5074940;28;20189;-68
2021/01/31 12:55:08;;;;;;;5.90;4.33;;;21.10;48.30;;;;;;5074848;28;20558;-68
2021/01/31 12:57:33;;;;;;;5.50;4.13;;;21.20;48.60;;;;;;5074825;28;20209;-68
2021/01/31 12:59:59;;;;;;;5.73;3.80;;;21.10;48.80;;;;;;5074949;28;20468;-68
2021/01/31 13:02:26;;;;;;;7.43;4.50;;;21.20;49.00;;;;;;5075032;28;20625;-67
2021/01/31 13:04:51;;;;;;;4.53;4.13;;;21.10;49.10;;;;;;5074790;28;20986;-68
2021/01/31 13:07:17;;;;;;;4.93;4.03;;;21.20;49.30;;;;;;5074600;28;20512;-67
2021/01/31 13:09:43;;;;;;;5.10;4.60;;;21.10;49.30;;;;;;5074720;28;20261;-69
2021/01/31 13:12:08;;;;;;;4.30;3.70;;;21.10;49.40;;;;;;5074609;28;20280;-68
2021/01/31 13:14:36;;;;;;;4.50;3.60;;;21.10;49.60;;;;;;5074670;28;20174;-68
2021/01/31 13:17:02;;;;;;;5.10;3.87;;;21.10;49.60;;;;;;5074327;28;20264;-68